Time;durP1;ratioP1;P1;durP2;ratioP2;P2;SDS_P1;SDS_P2;PMS_P1;PMS_P2;Temp;Humidity;BMP_temperature;BMP_pressure;BME280_temperature;BME280_humidity;BME280_pressure;Samples;Min_cycle;Max_cycle;Signal;HPM_P1;HPM_P2
2023/07/12 00:00:16;;;;;;;1.70;1.47;;;;;26.40;99777.00;;;;2066854;28;20238;-70
2023/07/12 00:01:18;;;;;;;2.67;1.60;;;;;26.40;99782.00;;;;2051377;28;20208;-71
2023/07/12 00:02:18;;;;;;;1.83;1.47;;;;;26.40;99787.00;;;;2048626;28;20537;-70
2023/07/12 00:03:18;;;;;;;1.70;1.50;;;;;26.40;99787.00;;;;2054317;28;21162;-70
2023/07/12 00:04:19;;;;;;;1.30;1.20;;;;;26.40;99785.00;;;;2048373;28;20555;-71
2023/07/12 00:05:19;;;;;;;1.87;1.37;;;;;26.40;99787.00;;;;2061670;28;20235;-71
2023/07/12 00:06:27;;;;;;;1.63;1.10;;;;;26.40;99789.00;;;;2064122;28;20248;-70
2023/07/12 00:07:27;;;;;;;1.87;1.53;;;;;26.40;99799.00;;;;2057455;28;20216;-70
2023/07/12 00:08:28;;;;;;;2.53;1.43;;;;;26.40;99791.00;;;;2051367;28;20480;-71
2023/07/12 00:09:29;;;;;;;1.60;1.20;;;;;26.40;99797.00;;;;2053411;28;20222;-71
2023/07/12 00:10:32;;;;;;;1.30;1.20;;;;;26.40;99792.00;;;;2059007;28;20489;-70
2023/07/12 00:11:33;;;;;;;1.70;1.27;;;;;26.40;99793.00;;;;2053266;28;20216;-70
2023/07/12 00:12:33;;;;;;;1.70;1.60;;;;;26.40;99795.00;;;;2052600;28;20487;-70
2023/07/12 00:13:33;;;;;;;1.40;1.07;;;;;26.40;99792.00;;;;2051455;28;20218;-70
2023/07/12 00:14:34;;;;;;;1.70;1.50;;;;;26.40;99796.00;;;;2060289;28;20239;-70
2023/07/12 00:15:34;;;;;;;1.90;1.33;;;;;26.40;99795.00;;;;2058862;28;20261;-70
2023/07/12 00:16:36;;;;;;;1.37;1.27;;;;;26.40;99797.00;;;;2044579;28;20721;-70
2023/07/12 00:17:37;;;;;;;1.30;1.10;;;;;26.40;99801.00;;;;2051395;28;20711;-70
2023/07/12 00:18:37;;;;;;;1.60;1.20;;;;;26.40;99799.00;;;;2050561;28;20458;-70
2023/07/12 00:19:37;;;;;;;1.50;1.30;;;;;26.40;99791.00;;;;2054401;28;20233;-70
2023/07/12 00:20:38;;;;;;;1.43;1.33;;;;;26.40;99793.00;;;;2057372;28;20242;-70
2023/07/12 00:21:39;;;;;;;1.37;1.27;;;;;26.40;99797.00;;;;2063104;28;22062;-70
2023/07/12 00:22:39;;;;;;;2.00;1.80;;;;;26.40;99793.00;;;;2067150;28;20221;-70
2023/07/12 00:23:40;;;;;;;2.80;1.47;;;;;26.40;99794.00;;;;2050520;28;20963;-70
2023/07/12 00:24:40;;;;;;;1.60;1.43;;;;;26.40;99793.00;;;;2057596;28;20738;-70
2023/07/12 00:25:41;;;;;;;2.07;1.40;;;;;26.40;99794.00;;;;2062036;28;21061;-70
2023/07/12 00:26:42;;;;;;;1.77;1.67;;;;;26.40;99790.00;;;;2060719;28;20299;-70
2023/07/12 00:27:42;;;;;;;2.83;1.63;;;;;26.40;99788.00;;;;2057353;28;20851;-70
2023/07/12 00:28:43;;;;;;;1.57;1.40;;;;;26.40;99795.00;;;;2049915;28;20222;-70
2023/07/12 00:29:43;;;;;;;2.10;1.90;;;;;26.40;99799.00;;;;2057729;28;20478;-70
2023/07/12 00:30:43;;;;;;;2.20;1.37;;;;;26.40;99791.00;;;;2063882;28;20210;-70
2023/07/12 00:31:44;;;;;;;1.77;1.40;;;;;26.40;99784.00;;;;2064153;28;20575;-70
2023/07/12 00:32:47;;;;;;;2.33;1.60;;;;;26.40;99788.00;;;;2064420;28;20706;-70
2023/07/12 00:33:47;;;;;;;1.40;1.10;;;;;26.40;99789.00;;;;2052615;28;20215;-70
2023/07/12 00:34:48;;;;;;;1.50;1.40;;;;;26.40;99789.00;;;;2057112;28;20504;-70
2023/07/12 00:35:48;;;;;;;1.53;1.40;;;;;26.40;99798.00;;;;2063608;28;20578;-70
2023/07/12 00:36:48;;;;;;;1.80;1.37;;;;;26.40;99792.00;;;;2058013;28;20884;-70
2023/07/12 00:37:54;;;;;;;1.40;1.30;;;;;26.40;99792.00;;;;2064934;28;20211;-70
2023/07/12 00:38:54;;;;;;;1.60;1.20;;;;;26.40;99795.00;;;;2057460;28;20226;-70
2023/07/12 00:39:54;;;;;;;1.50;1.40;;;;;26.40;99796.00;;;;2056072;28;21002;-70
2023/07/12 00:41:13;;;;;;;1.40;1.27;;;;;26.40;99795.00;;;;2063883;28;20202;-70
2023/07/12 00:42:18;;;;;;;1.43;1.33;;;;;26.40;99794.00;;;;2063069;28;20214;-70
2023/07/12 00:43:34;;;;;;;1.60;1.40;;;;;26.40;99788.00;;;;2052771;28;20456;-70
2023/07/12 00:44:46;;;;;;;1.60;1.30;;;;;26.40;99769.00;;;;2054852;28;20856;-70
2023/07/12 00:45:48;;;;;;;1.20;1.00;;;;;26.40;99788.00;;;;2054068;28;20451;-70
2023/07/12 00:46:51;;;;;;;1.97;1.27;;;;;26.40;99778.00;;;;2043453;28;20468;-70
2023/07/12 00:47:52;;;;;;;1.40;1.23;;;;;26.40;99786.00;;;;2054643;28;20463;-70
2023/07/12 00:48:52;;;;;;;1.57;1.30;;;;;26.40;99788.00;;;;2046166;28;20502;-70
2023/07/12 00:49:53;;;;;;;1.60;1.30;;;;;26.40;99793.00;;;;2058366;28;20245;-70
2023/07/12 00:50:54;;;;;;;1.63;1.37;;;;;26.40;99796.00;;;;2056368;28;20260;-70
2023/07/12 00:52:11;;;;;;;2.03;1.30;;;;;26.40;99782.00;;;;2060889;28;20605;-70
2023/07/12 00:53:16;;;;;;;1.80;1.40;;;;;26.40;99782.00;;;;2057800;28;20223;-70
2023/07/12 00:54:18;;;;;;;1.07;0.97;;;;;26.40;99789.00;;;;2045814;28;20466;-70
2023/07/12 00:56:10;;;;;;;1.53;1.43;;;;;26.40;99789.00;;;;2045248;28;20974;-70
2023/07/12 00:57:10;;;;;;;1.43;1.07;;;;;26.40;99788.00;;;;2042024;29;21000;-70
2023/07/12 00:58:10;;;;;;;1.87;1.50;;;;;26.40;99793.00;;;;2053530;28;20462;-70
2023/07/12 00:59:31;;;;;;;1.20;1.10;;;;;26.40;99803.00;;;;2044835;28;20232;-70
2023/07/12 01:00:31;;;;;;;1.30;1.13;;;;;26.40;99805.00;;;;2050272;28;20220;-70
2023/07/12 01:01:32;;;;;;;1.50;1.30;;;;;26.40;99781.00;;;;2060066;28;20564;-70
2023/07/12 01:02:32;;;;;;;1.57;1.27;;;;;26.40;99798.00;;;;2050334;28;20220;-70
2023/07/12 01:03:35;;;;;;;3.17;1.10;;;;;26.30;99802.00;;;;2036454;28;20527;-70
2023/07/12 01:04:37;;;;;;;1.40;1.30;;;;;26.40;99770.00;;;;2046521;28;20208;-70
2023/07/12 01:05:38;;;;;;;1.20;1.10;;;;;26.40;99790.00;;;;2034132;29;21013;-70
2023/07/12 01:06:39;;;;;;;1.40;1.10;;;;;26.30;99780.00;;;;2048878;28;20450;-70
2023/07/12 01:07:39;;;;;;;1.37;1.27;;;;;26.30;99796.00;;;;2052419;28;20466;-70
2023/07/12 01:08:42;;;;;;;1.87;0.90;;;;;26.30;99801.00;;;;2044101;28;20214;-70
2023/07/12 01:09:43;;;;;;;1.50;1.20;;;;;26.30;99798.00;;;;2063677;28;20225;-70
2023/07/12 01:10:43;;;;;;;1.30;1.13;;;;;26.30;99793.00;;;;2063433;28;20454;-70
2023/07/12 01:11:45;;;;;;;1.50;1.20;;;;;26.30;99788.00;;;;2056862;28;20200;-70
2023/07/12 01:12:46;;;;;;;1.40;1.10;;;;;26.30;99781.00;;;;2061812;28;20209;-70
2023/07/12 01:13:48;;;;;;;1.70;1.30;;;;;26.30;99777.00;;;;2054158;28;20482;-70
2023/07/12 01:14:49;;;;;;;1.80;1.30;;;;;26.30;99772.00;;;;2053984;28;20561;-70
2023/07/12 01:15:49;;;;;;;2.03;1.47;;;;;26.30;99762.00;;;;2053863;28;20486;-70
2023/07/12 01:17:04;;;;;;;2.27;1.50;;;;;26.40;99768.00;;;;2048235;28;20212;-70
2023/07/12 01:18:05;;;;;;;1.30;1.00;;;;;26.30;99773.00;;;;2054113;28;20265;-70
2023/07/12 01:19:06;;;;;;;1.10;1.00;;;;;26.40;99773.00;;;;2037989;28;20861;-70
2023/07/12 01:20:06;;;;;;;1.40;1.00;;;;;26.30;99771.00;;;;2048388;28;20468;-70
2023/07/12 01:21:11;;;;;;;1.70;1.47;;;;;26.30;99764.00;;;;2061860;28;20242;-71
2023/07/12 01:22:12;;;;;;;1.30;1.20;;;;;26.40;99757.00;;;;2056993;28;20973;-71
2023/07/12 01:23:13;;;;;;;1.50;1.40;;;;;26.30;99753.00;;;;2061560;28;20450;-70
2023/07/12 01:24:13;;;;;;;2.03;1.50;;;;;26.30;99763.00;;;;2051465;28;20225;-70
2023/07/12 01:25:14;;;;;;;1.30;1.00;;;;;26.30;99754.00;;;;2062671;28;20597;-70
2023/07/12 01:26:17;;;;;;;1.30;1.17;;;;;26.30;99754.00;;;;2063333;28;20617;-70
2023/07/12 01:27:23;;;;;;;1.23;1.00;;;;;26.30;99751.00;;;;2063823;28;20353;-70
2023/07/12 01:28:23;;;;;;;1.67;1.23;;;;;26.30;99758.00;;;;2064404;28;20521;-70
2023/07/12 01:29:24;;;;;;;2.00;1.20;;;;;26.30;99769.00;;;;2047833;28;20443;-70
2023/07/12 01:30:25;;;;;;;1.50;1.40;;;;;26.30;99774.00;;;;2054171;28;20204;-70
2023/07/12 01:31:25;;;;;;;1.67;1.07;;;;;26.30;99780.00;;;;2064079;28;20236;-70
2023/07/12 01:32:26;;;;;;;1.40;1.23;;;;;26.30;99760.00;;;;2056869;28;20212;-70
2023/07/12 01:33:26;;;;;;;1.60;1.50;;;;;26.30;99773.00;;;;2045515;28;20519;-70
2023/07/12 01:34:27;;;;;;;1.17;1.03;;;;;26.30;99777.00;;;;2049761;28;20394;-70
2023/07/12 01:35:27;;;;;;;1.47;1.20;;;;;26.30;99781.00;;;;2066211;28;20213;-70
2023/07/12 01:36:28;;;;;;;1.40;1.03;;;;;26.30;99783.00;;;;2063562;28;20335;-70
2023/07/12 01:37:28;;;;;;;1.20;1.10;;;;;26.30;99788.00;;;;2062693;28;20856;-70
2023/07/12 01:38:29;;;;;;;1.47;1.20;;;;;26.30;99789.00;;;;2062465;28;20458;-71
2023/07/12 01:39:29;;;;;;;1.30;1.07;;;;;26.30;99796.00;;;;2055619;28;20364;-71
2023/07/12 01:40:29;;;;;;;1.87;1.13;;;;;26.30;99796.00;;;;2068467;28;23127;-70
2023/07/12 01:41:29;;;;;;;1.57;1.17;;;;;26.30;99802.00;;;;2065253;28;20222;-70
2023/07/12 01:42:30;;;;;;;1.50;1.30;;;;;26.30;99812.00;;;;2063389;28;20234;-70
2023/07/12 01:43:31;;;;;;;1.40;1.20;;;;;26.30;99820.00;;;;2055134;28;20219;-70
2023/07/12 01:44:31;;;;;;;1.43;1.00;;;;;26.30;99832.00;;;;2061155;28;20301;-70
2023/07/12 01:45:31;;;;;;;1.40;1.03;;;;;26.30;99830.00;;;;2059726;28;20336;-70
2023/07/12 01:46:32;;;;;;;1.30;0.90;;;;;26.30;99830.00;;;;2060827;28;20906;-71
2023/07/12 01:47:39;;;;;;;1.37;1.13;;;;;26.30;99795.00;;;;2050562;28;20746;-70
2023/07/12 01:48:40;;;;;;;1.30;1.03;;;;;26.30;99834.00;;;;2041940;28;20695;-70
2023/07/12 01:49:41;;;;;;;1.43;1.00;;;;;26.30;99831.00;;;;2049380;28;20491;-70
2023/07/12 01:50:41;;;;;;;1.63;1.00;;;;;26.30;99833.00;;;;2047703;28;20212;-70
2023/07/12 01:51:42;;;;;;;1.13;0.97;;;;;26.30;99823.00;;;;2051549;28;20211;-70
2023/07/12 01:52:42;;;;;;;1.63;1.10;;;;;26.30;99823.00;;;;2057823;28;20624;-70
2023/07/12 01:53:43;;;;;;;1.10;0.97;;;;;26.30;99833.00;;;;2051628;28;20718;-70
2023/07/12 01:54:43;;;;;;;1.20;1.10;;;;;26.30;99837.00;;;;2063346;28;20203;-70
2023/07/12 01:55:44;;;;;;;1.90;1.60;;;;;26.30;99848.00;;;;2060936;28;20243;-71
2023/07/12 01:56:44;;;;;;;1.50;1.20;;;;;26.30;99858.00;;;;2066236;28;20218;-70
2023/07/12 01:57:47;;;;;;;1.53;1.43;;;;;26.30;99860.00;;;;2059699;28;20243;-70
2023/07/12 01:58:47;;;;;;;1.77;1.07;;;;;26.30;99865.00;;;;2047024;28;20216;-70
2023/07/12 01:59:48;;;;;;;2.00;1.00;;;;;26.30;99872.00;;;;2061661;28;20511;-70
2023/07/12 02:00:51;;;;;;;1.30;1.00;;;;;26.30;99869.00;;;;2063914;28;20215;-70
2023/07/12 02:01:54;;;;;;;1.17;0.83;;;;;26.30;99878.00;;;;2069381;28;20229;-71
2023/07/12 02:02:54;;;;;;;1.13;1.00;;;;;26.30;99877.00;;;;2062851;28;20474;-70
2023/07/12 02:03:54;;;;;;;1.17;1.00;;;;;26.30;99876.00;;;;2053195;28;21040;-70
2023/07/12 02:04:55;;;;;;;1.30;1.00;;;;;26.30;99872.00;;;;2066857;28;20702;-70
2023/07/12 02:05:55;;;;;;;1.40;1.30;;;;;26.30;99880.00;;;;2055723;28;20221;-70
2023/07/12 02:06:55;;;;;;;1.30;1.20;;;;;26.30;99872.00;;;;2055406;28;20244;-71
2023/07/12 02:07:56;;;;;;;3.83;1.03;;;;;26.30;99867.00;;;;2062242;28;20211;-70
2023/07/12 02:08:56;;;;;;;1.20;0.93;;;;;26.30;99859.00;;;;2053922;28;20234;-71
2023/07/12 02:10:11;;;;;;;1.73;1.10;;;;;26.30;99853.00;;;;2059491;28;20708;-71
2023/07/12 02:11:11;;;;;;;1.40;1.07;;;;;26.30;99838.00;;;;2054314;28;20229;-70
2023/07/12 02:12:12;;;;;;;1.20;1.10;;;;;26.30;99826.00;;;;2048255;28;20471;-71
2023/07/12 02:13:12;;;;;;;1.33;1.10;;;;;26.30;99830.00;;;;2063128;28;20544;-70
2023/07/12 02:14:12;;;;;;;1.27;1.00;;;;;26.30;99829.00;;;;2044101;28;20255;-70
2023/07/12 02:15:13;;;;;;;1.20;1.10;;;;;26.30;99836.00;;;;2061251;28;20304;-70
2023/07/12 02:16:14;;;;;;;1.50;1.10;;;;;26.30;99839.00;;;;2051595;28;20226;-70
2023/07/12 02:17:14;;;;;;;1.30;1.20;;;;;26.30;99844.00;;;;2052399;28;20463;-70
2023/07/12 02:18:14;;;;;;;1.90;1.20;;;;;26.30;99845.00;;;;2067123;28;20238;-70
2023/07/12 02:19:15;;;;;;;1.13;1.03;;;;;26.30;99857.00;;;;2044855;28;20234;-70
2023/07/12 02:20:15;;;;;;;1.10;1.00;;;;;26.30;99848.00;;;;2061443;28;20226;-70
2023/07/12 02:21:15;;;;;;;1.60;1.30;;;;;26.30;99849.00;;;;2063169;28;20313;-70
2023/07/12 02:22:16;;;;;;;1.50;1.20;;;;;26.30;99846.00;;;;2062558;28;20214;-70
2023/07/12 02:23:16;;;;;;;1.30;1.10;;;;;26.30;99834.00;;;;2066623;28;20218;-70
2023/07/12 02:24:16;;;;;;;1.93;1.37;;;;;26.30;99840.00;;;;2048143;28;20223;-70
2023/07/12 02:25:17;;;;;;;1.27;1.17;;;;;26.30;99837.00;;;;2055738;28;20234;-70
2023/07/12 02:26:18;;;;;;;1.33;1.23;;;;;26.30;99843.00;;;;2064609;28;20219;-70
2023/07/12 02:27:18;;;;;;;1.30;1.00;;;;;26.30;99852.00;;;;2056885;28;20455;-70
2023/07/12 02:28:18;;;;;;;1.10;1.00;;;;;26.30;99861.00;;;;2058197;28;20704;-70
2023/07/12 02:29:19;;;;;;;2.10;1.40;;;;;26.30;99865.00;;;;2055340;28;20218;-70
2023/07/12 02:30:24;;;;;;;1.60;0.97;;;;;26.30;99871.00;;;;2060657;28;20207;-70
2023/07/12 02:31:25;;;;;;;2.13;1.40;;;;;26.30;99871.00;;;;2060145;28;20641;-70
2023/07/12 02:32:27;;;;;;;0.90;0.80;;;;;26.30;99876.00;;;;2056498;28;20451;-70
2023/07/12 02:33:27;;;;;;;1.63;1.10;;;;;26.30;99874.00;;;;2059660;28;20774;-70
2023/07/12 02:34:27;;;;;;;1.73;1.17;;;;;26.30;99853.00;;;;2048154;28;20518;-70
2023/07/12 02:35:29;;;;;;;1.30;0.90;;;;;26.30;99837.00;;;;2057800;28;20212;-70
2023/07/12 02:36:29;;;;;;;1.57;1.07;;;;;26.30;99840.00;;;;2058404;28;20218;-70
2023/07/12 02:37:30;;;;;;;1.20;0.93;;;;;26.30;99850.00;;;;2060966;28;20449;-70
2023/07/12 02:38:30;;;;;;;1.47;0.93;;;;;26.30;99853.00;;;;2057878;28;20250;-70
2023/07/12 02:39:30;;;;;;;1.10;0.93;;;;;26.30;99872.00;;;;2049026;28;20245;-70
2023/07/12 02:40:31;;;;;;;1.30;1.00;;;;;26.30;99865.00;;;;2051092;28;20211;-70
2023/07/12 02:41:31;;;;;;;1.33;1.00;;;;;26.30;99869.00;;;;2051914;28;20270;-70
2023/07/12 02:42:31;;;;;;;1.50;1.23;;;;;26.30;99876.00;;;;2055467;28;20201;-70
2023/07/12 02:43:32;;;;;;;1.30;1.07;;;;;26.30;99879.00;;;;2053247;28;20215;-70
2023/07/12 02:44:32;;;;;;;1.10;0.80;;;;;26.30;99890.00;;;;2062777;28;20270;-70
2023/07/12 02:45:33;;;;;;;1.23;1.10;;;;;26.30;99890.00;;;;2058837;28;20216;-70
2023/07/12 02:46:33;;;;;;;1.20;0.90;;;;;26.30;99894.00;;;;2054872;28;20274;-70
2023/07/12 02:47:33;;;;;;;1.77;1.30;;;;;26.30;99902.00;;;;2065459;28;20590;-70
2023/07/12 02:48:34;;;;;;;1.13;1.00;;;;;26.30;99916.00;;;;2056137;28;20752;-70
2023/07/12 02:49:35;;;;;;;1.63;1.00;;;;;26.30;99936.00;;;;2063978;28;20294;-71
2023/07/12 02:50:35;;;;;;;1.30;1.00;;;;;26.30;99955.00;;;;2058771;28;20447;-70
2023/07/12 02:51:35;;;;;;;1.10;0.90;;;;;26.30;99967.00;;;;2057558;28;20339;-70
2023/07/12 02:52:36;;;;;;;1.27;0.83;;;;;26.30;99960.00;;;;2057842;28;20274;-70
2023/07/12 02:53:36;;;;;;;1.40;1.10;;;;;26.30;99933.00;;;;2045578;28;20251;-70
2023/07/12 02:54:36;;;;;;;2.20;1.10;;;;;26.30;99917.00;;;;2050897;28;20270;-70
2023/07/12 02:55:36;;;;;;;1.30;1.00;;;;;26.30;99904.00;;;;2050139;28;20219;-70
2023/07/12 02:56:37;;;;;;;1.87;1.03;;;;;26.30;99907.00;;;;2058777;28;20225;-70
2023/07/12 02:57:37;;;;;;;1.60;1.30;;;;;26.30;99910.00;;;;2058619;28;20223;-70
2023/07/12 02:58:37;;;;;;;1.30;1.20;;;;;26.30;99908.00;;;;2048727;28;20214;-70
2023/07/12 02:59:38;;;;;;;1.10;0.90;;;;;26.30;99914.00;;;;2060084;28;20212;-70
2023/07/12 03:00:38;;;;;;;1.40;0.97;;;;;26.30;99927.00;;;;2061364;28;20631;-70
2023/07/12 03:01:38;;;;;;;0.90;0.80;;;;;26.30;99925.00;;;;2060307;28;20286;-70
2023/07/12 03:02:39;;;;;;;1.30;1.00;;;;;26.30;99938.00;;;;2058228;28;20230;-70
2023/07/12 03:03:39;;;;;;;1.63;1.03;;;;;26.30;99924.00;;;;2054832;28;20217;-70
2023/07/12 03:04:39;;;;;;;1.23;1.13;;;;;26.30;99921.00;;;;2064028;28;21008;-71
2023/07/12 03:05:40;;;;;;;1.20;1.00;;;;;26.30;99916.00;;;;2066233;28;20683;-70
2023/07/12 03:06:40;;;;;;;1.37;0.97;;;;;26.30;99907.00;;;;2060997;28;20269;-70
2023/07/12 03:07:41;;;;;;;1.73;1.10;;;;;26.30;99900.00;;;;2061796;28;20243;-70
2023/07/12 03:08:42;;;;;;;1.37;1.20;;;;;26.30;99905.00;;;;2050351;28;20226;-70
2023/07/12 03:09:42;;;;;;;1.63;1.07;;;;;26.30;99921.00;;;;2067860;28;21233;-70
2023/07/12 03:10:42;;;;;;;1.13;0.90;;;;;26.30;99925.00;;;;2062342;28;20215;-70
2023/07/12 03:11:46;;;;;;;1.00;0.80;;;;;26.30;99931.00;;;;2057651;28;20703;-70
2023/07/12 03:12:47;;;;;;;1.93;1.37;;;;;26.30;99931.00;;;;2060372;28;20250;-70
2023/07/12 03:13:49;;;;;;;1.73;1.10;;;;;26.30;99924.00;;;;2046819;28;21018;-70
2023/07/12 03:14:50;;;;;;;1.80;1.40;;;;;26.30;99935.00;;;;2060222;28;20682;-70
2023/07/12 03:15:50;;;;;;;1.10;1.00;;;;;26.30;99940.00;;;;2062155;28;20460;-70
2023/07/12 03:16:51;;;;;;;1.23;1.00;;;;;26.30;99958.00;;;;2056674;28;20473;-70
2023/07/12 03:17:51;;;;;;;1.63;1.20;;;;;26.30;99966.00;;;;2060255;28;20222;-70
2023/07/12 03:18:52;;;;;;;1.10;0.87;;;;;26.30;99966.00;;;;2046963;28;20356;-70
2023/07/12 03:19:52;;;;;;;1.50;1.00;;;;;26.30;99983.00;;;;2055960;28;20560;-70
2023/07/12 03:20:57;;;;;;;2.00;1.07;;;;;26.30;99994.00;;;;2062405;28;20448;-70
2023/07/12 03:21:57;;;;;;;1.40;0.90;;;;;26.30;99996.00;;;;2047799;28;20216;-70
2023/07/12 03:22:58;;;;;;;1.60;1.10;;;;;26.30;99998.00;;;;2047555;28;20499;-70
2023/07/12 03:23:58;;;;;;;1.10;0.97;;;;;26.30;99988.00;;;;2049298;28;20220;-70
2023/07/12 03:24:58;;;;;;;1.40;0.97;;;;;26.30;99973.00;;;;2059575;28;20241;-70
2023/07/12 03:25:59;;;;;;;1.67;1.00;;;;;26.30;99954.00;;;;2065402;28;20260;-70
2023/07/12 03:26:59;;;;;;;1.30;1.13;;;;;26.30;99932.00;;;;2056940;28;20211;-71
2023/07/12 03:27:59;;;;;;;1.90;1.20;;;;;26.30;99932.00;;;;2046829;28;20220;-70
2023/07/12 03:29:00;;;;;;;1.23;0.97;;;;;26.30;99941.00;;;;2040286;28;20230;-71
2023/07/12 03:30:00;;;;;;;1.07;0.90;;;;;26.30;99946.00;;;;2056413;28;20596;-70
2023/07/12 03:31:04;;;;;;;1.50;0.97;;;;;26.30;99956.00;;;;2054682;28;20603;-70
2023/07/12 03:32:05;;;;;;;1.60;1.20;;;;;26.30;99961.00;;;;2050817;28;20960;-70
2023/07/12 03:33:05;;;;;;;1.63;1.20;;;;;26.30;99949.00;;;;2055450;28;20542;-70
2023/07/12 03:34:06;;;;;;;1.17;1.00;;;;;26.30;99941.00;;;;2051539;28;20933;-70
2023/07/12 03:35:06;;;;;;;1.50;1.00;;;;;26.30;99948.00;;;;2055322;28;20241;-70
2023/07/12 03:36:07;;;;;;;1.40;0.90;;;;;26.30;99948.00;;;;2055240;28;20252;-70
2023/07/12 03:37:07;;;;;;;1.60;1.10;;;;;26.30;99940.00;;;;2061638;28;20296;-70
2023/07/12 03:38:08;;;;;;;1.23;1.03;;;;;26.30;99938.00;;;;2055419;28;20454;-70
2023/07/12 03:39:08;;;;;;;1.20;0.83;;;;;26.30;99936.00;;;;2052257;28;20234;-70
2023/07/12 03:40:08;;;;;;;1.90;0.80;;;;;26.30;99937.00;;;;2056314;28;20295;-70
2023/07/12 03:41:09;;;;;;;2.50;1.30;;;;;26.30;99944.00;;;;2055058;28;20672;-71
2023/07/12 03:42:10;;;;;;;1.50;1.00;;;;;26.30;99947.00;;;;2065578;28;20249;-70
2023/07/12 03:43:10;;;;;;;1.93;0.90;;;;;26.30;99943.00;;;;2055257;28;20459;-70
2023/07/12 03:44:11;;;;;;;1.93;1.47;;;;;26.30;99935.00;;;;2044242;28;20211;-70
2023/07/12 03:45:11;;;;;;;1.63;1.20;;;;;26.30;99936.00;;;;2050308;28;20344;-70
2023/07/12 03:46:11;;;;;;;1.17;0.90;;;;;26.30;99925.00;;;;2056598;28;20219;-70
2023/07/12 03:47:11;;;;;;;2.10;1.00;;;;;26.30;99932.00;;;;2061537;28;20210;-70
2023/07/12 03:48:12;;;;;;;1.63;0.87;;;;;26.30;99931.00;;;;2063521;28;20222;-70
2023/07/12 03:49:13;;;;;;;1.50;1.10;;;;;26.30;99921.00;;;;2053023;28;20210;-70
2023/07/12 03:50:13;;;;;;;1.43;0.83;;;;;26.30;99923.00;;;;2064613;28;20268;-70
2023/07/12 03:51:14;;;;;;;1.07;0.70;;;;;26.30;99910.00;;;;2049432;28;20211;-70
2023/07/12 03:52:14;;;;;;;1.50;1.10;;;;;26.30;99901.00;;;;2053863;28;20212;-70
2023/07/12 03:53:15;;;;;;;1.30;1.00;;;;;26.30;99908.00;;;;2053981;28;20435;-70
2023/07/12 03:54:15;;;;;;;1.67;0.87;;;;;26.30;99900.00;;;;2044773;28;20211;-70
2023/07/12 03:55:15;;;;;;;1.20;0.90;;;;;26.30;99913.00;;;;2067024;28;20246;-70
2023/07/12 03:56:16;;;;;;;1.70;1.10;;;;;26.30;99917.00;;;;2061092;28;20667;-71
2023/07/12 03:57:16;;;;;;;1.50;1.03;;;;;26.30;99912.00;;;;2067887;28;20701;-70
2023/07/12 03:58:21;;;;;;;1.10;0.80;;;;;26.30;99915.00;;;;2058671;28;20223;-70
2023/07/12 03:59:22;;;;;;;1.47;0.93;;;;;26.30;99912.00;;;;2053419;28;20302;-70
2023/07/12 04:00:22;;;;;;;2.20;1.00;;;;;26.30;99909.00;;;;2067552;28;20461;-70
2023/07/12 04:01:22;;;;;;;1.20;0.97;;;;;26.30;99902.00;;;;2059505;28;20750;-70
2023/07/12 04:02:23;;;;;;;1.10;0.90;;;;;26.30;99892.00;;;;2057383;28;20264;-70
2023/07/12 04:03:23;;;;;;;1.20;0.97;;;;;26.30;99899.00;;;;2059838;28;20219;-70
2023/07/12 04:04:24;;;;;;;1.50;1.13;;;;;26.30;99887.00;;;;2047199;28;20208;-70
2023/07/12 04:05:24;;;;;;;1.63;0.90;;;;;26.30;99897.00;;;;2065932;28;20206;-70
2023/07/12 04:06:24;;;;;;;1.83;1.17;;;;;26.30;99899.00;;;;2057023;28;20203;-70
2023/07/12 04:07:24;;;;;;;1.60;1.10;;;;;26.30;99907.00;;;;2060512;28;20206;-70
2023/07/12 04:08:25;;;;;;;1.80;1.10;;;;;26.30;99899.00;;;;2062410;28;20664;-70
2023/07/12 04:09:25;;;;;;;1.70;1.33;;;;;26.30;99902.00;;;;2050946;28;20702;-70
2023/07/12 04:10:25;;;;;;;1.30;0.90;;;;;26.30;99900.00;;;;2065566;28;20207;-70
2023/07/12 04:11:30;;;;;;;1.40;1.30;;;;;26.30;99900.00;;;;2060354;28;20222;-70
2023/07/12 04:12:31;;;;;;;1.77;1.10;;;;;26.30;99890.00;;;;2061044;28;20303;-70
2023/07/12 04:13:31;;;;;;;2.37;1.00;;;;;26.30;99897.00;;;;2059093;28;20470;-70
2023/07/12 04:14:31;;;;;;;1.20;0.80;;;;;26.30;99901.00;;;;2059007;28;20746;-70
2023/07/12 04:15:32;;;;;;;1.17;0.90;;;;;26.30;99903.00;;;;2059565;28;20208;-70
2023/07/12 04:16:32;;;;;;;1.10;0.90;;;;;26.30;99902.00;;;;2057729;28;20265;-70
2023/07/12 04:17:33;;;;;;;1.73;1.20;;;;;26.30;99910.00;;;;2061149;28;20255;-70
2023/07/12 04:18:33;;;;;;;1.20;0.90;;;;;26.30;99905.00;;;;2058282;28;20234;-70
2023/07/12 04:19:33;;;;;;;1.50;0.90;;;;;26.30;99910.00;;;;2065696;28;20458;-70
2023/07/12 04:20:37;;;;;;;1.40;0.80;;;;;26.30;99917.00;;;;2061346;28;20211;-70
2023/07/12 04:21:37;;;;;;;1.30;0.87;;;;;26.30;99925.00;;;;2059624;28;20278;-70
2023/07/12 04:22:38;;;;;;;0.93;0.73;;;;;26.30;99928.00;;;;2064271;28;20915;-70
2023/07/12 04:23:38;;;;;;;1.37;0.90;;;;;26.30;99917.00;;;;2054765;28;20674;-70
2023/07/12 04:24:38;;;;;;;1.50;1.00;;;;;26.30;99909.00;;;;2062488;28;20274;-70
2023/07/12 04:25:39;;;;;;;1.20;0.97;;;;;26.30;99916.00;;;;2062525;28;20218;-70
2023/07/12 04:26:39;;;;;;;1.50;1.00;;;;;26.30;99918.00;;;;2063318;28;20219;-70
2023/07/12 04:27:39;;;;;;;1.40;1.10;;;;;26.30;99920.00;;;;2058922;28;20216;-70
2023/07/12 04:28:40;;;;;;;1.00;0.80;;;;;26.30;99925.00;;;;2051044;28;20298;-70
2023/07/12 04:29:42;;;;;;;1.80;0.80;;;;;26.20;99922.00;;;;2063224;28;20215;-70
2023/07/12 04:30:42;;;;;;;1.33;0.77;;;;;26.20;99925.00;;;;2065769;28;20511;-70
2023/07/12 04:31:42;;;;;;;1.20;0.90;;;;;26.20;99925.00;;;;2062600;28;20521;-70
2023/07/12 04:32:43;;;;;;;1.50;1.00;;;;;26.30;99922.00;;;;2064035;28;20226;-70
2023/07/12 04:33:45;;;;;;;1.23;1.03;;;;;26.30;99924.00;;;;2054191;28;20311;-70
2023/07/12 04:34:46;;;;;;;2.33;1.10;;;;;26.20;99924.00;;;;2062093;28;20450;-70
2023/07/12 04:35:46;;;;;;;2.10;1.07;;;;;26.20;99920.00;;;;2069282;28;20461;-70
2023/07/12 04:36:47;;;;;;;1.40;1.00;;;;;26.20;99931.00;;;;2061400;28;20457;-70
2023/07/12 04:37:48;;;;;;;1.63;0.87;;;;;26.30;99921.00;;;;2054634;28;20215;-70
2023/07/12 04:38:48;;;;;;;1.10;0.93;;;;;26.20;99925.00;;;;2038049;28;20247;-70
2023/07/12 04:39:49;;;;;;;1.00;0.90;;;;;26.30;99915.00;;;;2055369;28;20954;-70
2023/07/12 04:40:55;;;;;;;1.10;0.80;;;;;26.20;99914.00;;;;2063683;28;20286;-70
2023/07/12 04:41:55;;;;;;;1.67;0.90;;;;;26.20;99904.00;;;;2051974;28;20218;-70
2023/07/12 04:42:56;;;;;;;1.60;0.93;;;;;26.20;99897.00;;;;2049075;28;20456;-70
2023/07/12 04:43:56;;;;;;;1.50;1.00;;;;;26.20;99910.00;;;;2056762;28;20226;-70
2023/07/12 04:44:56;;;;;;;1.63;1.13;;;;;26.20;99916.00;;;;2056535;28;20247;-70
2023/07/12 04:45:57;;;;;;;2.27;1.20;;;;;26.20;99917.00;;;;2056912;28;20223;-70
2023/07/12 04:46:58;;;;;;;1.30;0.90;;;;;26.20;99919.00;;;;2062009;28;20215;-70
2023/07/12 04:47:58;;;;;;;1.20;0.90;;;;;26.20;99916.00;;;;2057432;28;20447;-70
2023/07/12 04:48:58;;;;;;;1.87;0.97;;;;;26.20;99920.00;;;;2056044;28;20344;-70
2023/07/12 04:49:58;;;;;;;2.73;1.10;;;;;26.30;99927.00;;;;2061463;28;20212;-70
2023/07/12 04:50:59;;;;;;;1.57;1.03;;;;;26.20;99917.00;;;;2058921;28;20289;-70
2023/07/12 04:51:59;;;;;;;1.53;1.03;;;;;26.30;99919.00;;;;2053405;28;20207;-70
2023/07/12 04:53:00;;;;;;;1.87;1.10;;;;;26.20;99926.00;;;;2049242;28;20216;-70
2023/07/12 04:54:00;;;;;;;2.03;1.07;;;;;26.20;99930.00;;;;2052949;28;20652;-70
2023/07/12 04:55:02;;;;;;;2.10;0.90;;;;;26.30;99929.00;;;;2063673;28;20710;-70
2023/07/12 04:56:03;;;;;;;1.20;0.83;;;;;26.20;99918.00;;;;2048222;28;20705;-70
2023/07/12 04:57:04;;;;;;;1.67;0.97;;;;;26.20;99924.00;;;;2061047;28;20557;-70
2023/07/12 04:58:04;;;;;;;2.17;1.23;;;;;26.20;99927.00;;;;2060009;28;20208;-70
2023/07/12 04:59:05;;;;;;;1.27;0.80;;;;;26.20;99935.00;;;;2053148;28;20223;-70
2023/07/12 05:00:06;;;;;;;1.57;0.90;;;;;26.30;99923.00;;;;2069230;28;20579;-70
2023/07/12 05:01:06;;;;;;;1.43;0.90;;;;;26.20;99924.00;;;;2060181;28;20207;-70
2023/07/12 05:02:07;;;;;;;1.77;0.90;;;;;26.30;99938.00;;;;2055494;28;20491;-70
2023/07/12 05:03:07;;;;;;;1.53;1.20;;;;;26.20;99932.00;;;;2039905;29;20217;-70
2023/07/12 05:04:07;;;;;;;1.23;0.60;;;;;26.20;99931.00;;;;2045606;28;20274;-70
2023/07/12 05:05:08;;;;;;;1.30;0.90;;;;;26.20;99936.00;;;;2062863;28;20226;-70
2023/07/12 05:06:09;;;;;;;1.57;1.00;;;;;26.20;99936.00;;;;2057985;28;20661;-70
2023/07/12 05:07:10;;;;;;;1.40;0.90;;;;;26.30;99944.00;;;;2063601;28;20489;-70